sensor_id;sensor_type;location;lat;lon;timestamp;temperature;humidity
58519;DHT22;44310;48.106;12.008;2022-09-03T00:02:26;20.60;69.10
58519;DHT22;44310;48.106;12.008;2022-09-03T00:05:11;20.60;69.40
58519;DHT22;44310;48.106;12.008;2022-09-03T00:07:55;20.60;69.40
58519;DHT22;44310;48.106;12.008;2022-09-03T00:10:33;20.70;70.20
58519;DHT22;44310;48.106;12.008;2022-09-03T00:13:04;20.70;70.30
58519;DHT22;44310;48.106;12.008;2022-09-03T00:15:34;20.70;70.30
58519;DHT22;44310;48.106;12.008;2022-09-03T00:18:15;20.80;70.10
58519;DHT22;44310;48.106;12.008;2022-09-03T00:20:50;20.80;70.10
58519;DHT22;44310;48.106;12.008;2022-09-03T00:23:21;20.70;70.00
58519;DHT22;44310;48.106;12.008;2022-09-03T00:31:28;20.80;69.80
58519;DHT22;44310;48.106;12.008;2022-09-03T00:34:01;20.80;69.90
58519;DHT22;44310;48.106;12.008;2022-09-03T00:36:41;20.80;70.60
58519;DHT22;44310;48.106;12.008;2022-09-03T00:39:11;20.80;70.20
58519;DHT22;44310;48.106;12.008;2022-09-03T00:47:47;20.80;70.00
58519;DHT22;44310;48.106;12.008;2022-09-03T00:53:52;20.80;70.20
58519;DHT22;44310;48.106;12.008;2022-09-03T00:56:38;20.80;70.60
58519;DHT22;44310;48.106;12.008;2022-09-03T00:59:36;20.80;70.80
58519;DHT22;44310;48.106;12.008;2022-09-03T01:02:25;20.80;70.90
58519;DHT22;44310;48.106;12.008;2022-09-03T01:16:29;20.80;70.50
58519;DHT22;44310;48.106;12.008;2022-09-03T01:25:14;20.80;70.70
58519;DHT22;44310;48.106;12.008;2022-09-03T01:30:40;20.80;70.30
58519;DHT22;44310;48.106;12.008;2022-09-03T01:38:46;20.80;70.30
58519;DHT22;44310;48.106;12.008;2022-09-03T01:41:24;20.80;70.30
58519;DHT22;44310;48.106;12.008;2022-09-03T01:47:02;20.80;70.20
58519;DHT22;44310;48.106;12.008;2022-09-03T01:49:42;20.80;70.20
58519;DHT22;44310;48.106;12.008;2022-09-03T01:52:18;20.80;70.10
58519;DHT22;44310;48.106;12.008;2022-09-03T01:57:49;20.80;70.40
58519;DHT22;44310;48.106;12.008;2022-09-03T02:00:19;20.80;70.30
58519;DHT22;44310;48.106;12.008;2022-09-03T02:02:49;20.80;70.40
58519;DHT22;44310;48.106;12.008;2022-09-03T02:05:25;20.80;70.60
58519;DHT22;44310;48.106;12.008;2022-09-03T02:07:59;20.80;70.50
58519;DHT22;44310;48.106;12.008;2022-09-03T02:10:40;20.80;70.80
58519;DHT22;44310;48.106;12.008;2022-09-03T02:13:12;20.80;70.80
58519;DHT22;44310;48.106;12.008;2022-09-03T02:15:44;20.80;71.20
58519;DHT22;44310;48.106;12.008;2022-09-03T02:18:16;20.80;71.20
58519;DHT22;44310;48.106;12.008;2022-09-03T02:20:45;20.80;70.80
58519;DHT22;44310;48.106;12.008;2022-09-03T02:23:14;20.80;70.90
58519;DHT22;44310;48.106;12.008;2022-09-03T02:25:46;20.80;70.80
58519;DHT22;44310;48.106;12.008;2022-09-03T02:28:14;20.80;70.70
58519;DHT22;44310;48.106;12.008;2022-09-03T02:30:44;20.70;70.50
58519;DHT22;44310;48.106;12.008;2022-09-03T02:33:11;20.70;70.50
58519;DHT22;44310;48.106;12.008;2022-09-03T02:35:40;20.70;70.40
58519;DHT22;44310;48.106;12.008;2022-09-03T02:38:13;20.70;70.30
58519;DHT22;44310;48.106;12.008;2022-09-03T02:40:40;20.70;70.10
58519;DHT22;44310;48.106;12.008;2022-09-03T02:44:05;20.70;70.00
58519;DHT22;44310;48.106;12.008;2022-09-03T02:46:07;20.70;70.00
58519;DHT22;44310;48.106;12.008;2022-09-03T02:48:36;20.70;69.80
58519;DHT22;44310;48.106;12.008;2022-09-03T02:51:03;20.70;69.90
58519;DHT22;44310;48.106;12.008;2022-09-03T02:53:41;20.70;69.80
58519;DHT22;44310;48.106;12.008;2022-09-03T02:56:09;20.70;69.80
58519;DHT22;44310;48.106;12.008;2022-09-03T02:58:37;20.70;69.70
58519;DHT22;44310;48.106;12.008;2022-09-03T03:01:04;20.70;70.10
58519;DHT22;44310;48.106;12.008;2022-09-03T03:03:32;20.80;70.50
58519;DHT22;44310;48.106;12.008;2022-09-03T03:06:02;20.70;70.40
58519;DHT22;44310;48.106;12.008;2022-09-03T03:08:30;20.80;70.50
58519;DHT22;44310;48.106;12.008;2022-09-03T03:11:00;20.80;70.30
58519;DHT22;44310;48.106;12.008;2022-09-03T03:13:29;20.80;70.30
58519;DHT22;44310;48.106;12.008;2022-09-03T03:16:02;20.70;70.10
58519;DHT22;44310;48.106;12.008;2022-09-03T03:18:32;20.70;70.00
58519;DHT22;44310;48.106;12.008;2022-09-03T03:21:12;20.70;69.90
58519;DHT22;44310;48.106;12.008;2022-09-03T03:23:40;20.80;69.90
58519;DHT22;44310;48.106;12.008;2022-09-03T03:26:11;20.80;70.00
58519;DHT22;44310;48.106;12.008;2022-09-03T03:28:39;20.80;69.90
58519;DHT22;44310;48.106;12.008;2022-09-03T03:31:13;20.80;69.90
58519;DHT22;44310;48.106;12.008;2022-09-03T03:33:41;20.80;69.90
58519;DHT22;44310;48.106;12.008;2022-09-03T03:36:14;20.80;70.00
58519;DHT22;44310;48.106;12.008;2022-09-03T03:38:42;20.80;69.90
58519;DHT22;44310;48.106;12.008;2022-09-03T03:41:19;20.80;69.90
58519;DHT22;44310;48.106;12.008;2022-09-03T03:43:54;20.80;69.80
58519;DHT22;44310;48.106;12.008;2022-09-03T03:46:23;20.80;69.80
58519;DHT22;44310;48.106;12.008;2022-09-03T03:48:51;20.80;70.30
58519;DHT22;44310;48.106;12.008;2022-09-03T03:51:19;20.80;70.40
58519;DHT22;44310;48.106;12.008;2022-09-03T03:53:46;20.80;70.50
58519;DHT22;44310;48.106;12.008;2022-09-03T03:56:14;20.80;70.70
58519;DHT22;44310;48.106;12.008;2022-09-03T03:58:42;20.80;71.00
58519;DHT22;44310;48.106;12.008;2022-09-03T04:01:13;20.80;71.20
58519;DHT22;44310;48.106;12.008;2022-09-03T04:03:41;20.80;71.10
58519;DHT22;44310;48.106;12.008;2022-09-03T04:06:10;20.80;71.10
58519;DHT22;44310;48.106;12.008;2022-09-03T04:08:40;20.80;71.10
58519;DHT22;44310;48.106;12.008;2022-09-03T04:11:10;20.80;71.10
58519;DHT22;44310;48.106;12.008;2022-09-03T04:13:39;20.80;70.90
58519;DHT22;44310;48.106;12.008;2022-09-03T04:16:12;20.80;71.00
58519;DHT22;44310;48.106;12.008;2022-09-03T04:18:40;20.80;71.00
58519;DHT22;44310;48.106;12.008;2022-09-03T04:21:10;20.80;70.80
58519;DHT22;44310;48.106;12.008;2022-09-03T04:23:40;20.80;70.60
58519;DHT22;44310;48.106;12.008;2022-09-03T04:26:09;20.70;70.30
58519;DHT22;44310;48.106;12.008;2022-09-03T04:28:37;20.70;70.20
58519;DHT22;44310;48.106;12.008;2022-09-03T04:31:06;20.70;70.00
58519;DHT22;44310;48.106;12.008;2022-09-03T04:33:35;20.70;69.80
58519;DHT22;44310;48.106;12.008;2022-09-03T04:36:08;20.70;69.90
58519;DHT22;44310;48.106;12.008;2022-09-03T04:38:38;20.70;70.40
58519;DHT22;44310;48.106;12.008;2022-09-03T04:41:07;20.70;70.30
58519;DHT22;44310;48.106;12.008;2022-09-03T04:43:35;20.70;70.40
58519;DHT22;44310;48.106;12.008;2022-09-03T04:46:05;20.70;70.30
58519;DHT22;44310;48.106;12.008;2022-09-03T04:48:34;20.70;70.00
58519;DHT22;44310;48.106;12.008;2022-09-03T04:51:05;20.80;70.10
58519;DHT22;44310;48.106;12.008;2022-09-03T04:53:39;20.70;69.90
58519;DHT22;44310;48.106;12.008;2022-09-03T04:56:20;20.70;69.90
58519;DHT22;44310;48.106;12.008;2022-09-03T04:58:54;20.80;69.70
58519;DHT22;44310;48.106;12.008;2022-09-03T05:01:23;20.80;69.40
58519;DHT22;44310;48.106;12.008;2022-09-03T05:03:51;20.70;69.20
58519;DHT22;44310;48.106;12.008;2022-09-03T05:06:18;20.70;69.00
58519;DHT22;44310;48.106;12.008;2022-09-03T05:08:50;20.70;69.00
58519;DHT22;44310;48.106;12.008;2022-09-03T05:11:20;20.70;68.90
58519;DHT22;44310;48.106;12.008;2022-09-03T05:13:49;20.70;68.70
58519;DHT22;44310;48.106;12.008;2022-09-03T05:16:18;20.70;68.70
58519;DHT22;44310;48.106;12.008;2022-09-03T05:18:46;20.70;68.70
58519;DHT22;44310;48.106;12.008;2022-09-03T05:21:16;20.80;69.00
58519;DHT22;44310;48.106;12.008;2022-09-03T05:23:46;20.70;68.90
58519;DHT22;44310;48.106;12.008;2022-09-03T05:26:17;20.70;68.90
58519;DHT22;44310;48.106;12.008;2022-09-03T05:28:45;20.70;69.00
58519;DHT22;44310;48.106;12.008;2022-09-03T05:31:15;20.70;69.00
58519;DHT22;44310;48.106;12.008;2022-09-03T05:33:50;20.70;68.90
58519;DHT22;44310;48.106;12.008;2022-09-03T05:36:22;20.70;69.00
58519;DHT22;44310;48.106;12.008;2022-09-03T05:38:50;20.70;69.10
58519;DHT22;44310;48.106;12.008;2022-09-03T05:41:21;20.70;69.10
58519;DHT22;44310;48.106;12.008;2022-09-03T05:43:50;20.70;69.10
58519;DHT22;44310;48.106;12.008;2022-09-03T05:46:23;20.70;69.10
58519;DHT22;44310;48.106;12.008;2022-09-03T05:49:03;20.80;69.30
58519;DHT22;44310;48.106;12.008;2022-09-03T05:51:32;20.70;69.70
58519;DHT22;44310;48.106;12.008;2022-09-03T05:54:00;20.80;69.80
58519;DHT22;44310;48.106;12.008;2022-09-03T05:56:30;20.70;69.60
58519;DHT22;44310;48.106;12.008;2022-09-03T05:59:00;20.80;69.60
58519;DHT22;44310;48.106;12.008;2022-09-03T06:01:31;20.80;69.40
58519;DHT22;44310;48.106;12.008;2022-09-03T06:04:00;20.70;69.40
58519;DHT22;44310;48.106;12.008;2022-09-03T06:06:30;20.70;69.60
58519;DHT22;44310;48.106;12.008;2022-09-03T06:09:41;20.70;69.70
58519;DHT22;44310;48.106;12.008;2022-09-03T06:11:50;20.70;69.70
58519;DHT22;44310;48.106;12.008;2022-09-03T06:14:19;20.80;69.90
58519;DHT22;44310;48.106;12.008;2022-09-03T06:16:47;20.80;70.00
58519;DHT22;44310;48.106;12.008;2022-09-03T06:19:16;20.80;70.10
58519;DHT22;44310;48.106;12.008;2022-09-03T06:21:44;20.80;70.00
58519;DHT22;44310;48.106;12.008;2022-09-03T06:24:17;20.80;70.30
58519;DHT22;44310;48.106;12.008;2022-09-03T06:26:46;20.80;70.40
58519;DHT22;44310;48.106;12.008;2022-09-03T06:29:14;20.80;70.30
58519;DHT22;44310;48.106;12.008;2022-09-03T06:31:41;20.80;70.40
58519;DHT22;44310;48.106;12.008;2022-09-03T06:34:09;20.80;70.40
58519;DHT22;44310;48.106;12.008;2022-09-03T06:36:38;20.80;70.40
58519;DHT22;44310;48.106;12.008;2022-09-03T06:39:07;20.80;70.60
58519;DHT22;44310;48.106;12.008;2022-09-03T06:41:34;20.80;70.70
58519;DHT22;44310;48.106;12.008;2022-09-03T06:44:04;20.80;70.80
58519;DHT22;44310;48.106;12.008;2022-09-03T06:46:34;20.80;70.80
58519;DHT22;44310;48.106;12.008;2022-09-03T06:49:05;20.80;70.80
58519;DHT22;44310;48.106;12.008;2022-09-03T06:51:33;20.80;71.00
58519;DHT22;44310;48.106;12.008;2022-09-03T06:54:03;20.80;71.20
58519;DHT22;44310;48.106;12.008;2022-09-03T06:56:31;20.80;71.10
58519;DHT22;44310;48.106;12.008;2022-09-03T06:59:14;20.80;71.20
58519;DHT22;44310;48.106;12.008;2022-09-03T07:01:42;20.70;70.60
58519;DHT22;44310;48.106;12.008;2022-09-03T07:04:14;20.60;71.20
58519;DHT22;44310;48.106;12.008;2022-09-03T07:06:45;20.60;71.90
58519;DHT22;44310;48.106;12.008;2022-09-03T07:09:13;20.60;71.90
58519;DHT22;44310;48.106;12.008;2022-09-03T07:11:42;20.60;72.20
58519;DHT22;44310;48.106;12.008;2022-09-03T07:14:16;20.60;72.00
58519;DHT22;44310;48.106;12.008;2022-09-03T07:16:45;20.50;71.90
58519;DHT22;44310;48.106;12.008;2022-09-03T07:19:13;20.50;72.50
58519;DHT22;44310;48.106;12.008;2022-09-03T07:21:41;20.50;72.50
58519;DHT22;44310;48.106;12.008;2022-09-03T07:24:16;20.50;72.40
58519;DHT22;44310;48.106;12.008;2022-09-03T07:26:44;20.50;73.20
58519;DHT22;44310;48.106;12.008;2022-09-03T07:29:13;20.50;72.30
58519;DHT22;44310;48.106;12.008;2022-09-03T07:31:42;20.30;71.90
58519;DHT22;44310;48.106;12.008;2022-09-03T07:34:11;20.10;71.40
58519;DHT22;44310;48.106;12.008;2022-09-03T07:36:42;20.00;71.50
58519;DHT22;44310;48.106;12.008;2022-09-03T07:39:10;19.90;72.70
58519;DHT22;44310;48.106;12.008;2022-09-03T07:41:39;19.90;74.10
58519;DHT22;44310;48.106;12.008;2022-09-03T07:44:09;19.90;74.80
58519;DHT22;44310;48.106;12.008;2022-09-03T07:46:37;20.10;74.90
58519;DHT22;44310;48.106;12.008;2022-09-03T07:49:05;20.00;74.50
58519;DHT22;44310;48.106;12.008;2022-09-03T07:51:35;20.00;74.60
58519;DHT22;44310;48.106;12.008;2022-09-03T07:54:05;19.80;75.30
58519;DHT22;44310;48.106;12.008;2022-09-03T07:56:34;19.60;76.50
58519;DHT22;44310;48.106;12.008;2022-09-03T07:59:03;19.60;77.20
58519;DHT22;44310;48.106;12.008;2022-09-03T08:01:32;19.70;77.50
58519;DHT22;44310;48.106;12.008;2022-09-03T08:04:01;19.80;77.50
58519;DHT22;44310;48.106;12.008;2022-09-03T08:06:31;19.80;76.90
58519;DHT22;44310;48.106;12.008;2022-09-03T08:09:02;19.90;76.30
58519;DHT22;44310;48.106;12.008;2022-09-03T08:11:35;19.80;76.20
58519;DHT22;44310;48.106;12.008;2022-09-03T08:14:05;19.80;77.00
58519;DHT22;44310;48.106;12.008;2022-09-03T08:16:35;19.90;77.20
58519;DHT22;44310;48.106;12.008;2022-09-03T08:19:03;20.00;77.40
58519;DHT22;44310;48.106;12.008;2022-09-03T08:21:31;20.00;76.70
58519;DHT22;44310;48.106;12.008;2022-09-03T08:23:59;20.10;77.50
58519;DHT22;44310;48.106;12.008;2022-09-03T08:26:31;20.20;76.90
58519;DHT22;44310;48.106;12.008;2022-09-03T08:28:59;20.20;76.60
58519;DHT22;44310;48.106;12.008;2022-09-03T08:31:27;20.30;77.60
58519;DHT22;44310;48.106;12.008;2022-09-03T08:33:57;20.40;78.20
58519;DHT22;44310;48.106;12.008;2022-09-03T08:36:27;20.40;77.20
58519;DHT22;44310;48.106;12.008;2022-09-03T08:38:58;20.40;77.00
58519;DHT22;44310;48.106;12.008;2022-09-03T08:44:37;20.40;77.40
58519;DHT22;44310;48.106;12.008;2022-09-03T08:50:04;20.50;77.80
58519;DHT22;44310;48.106;12.008;2022-09-03T08:58:14;20.50;77.40
58519;DHT22;44310;48.106;12.008;2022-09-03T09:22:43;20.20;77.50
58519;DHT22;44310;48.106;12.008;2022-09-03T09:25:21;20.20;77.60
58519;DHT22;44310;48.106;12.008;2022-09-03T09:27:59;20.20;77.70
58519;DHT22;44310;48.106;12.008;2022-09-03T09:30:31;20.20;77.40
58519;DHT22;44310;48.106;12.008;2022-09-03T09:32:58;20.20;77.50
58519;DHT22;44310;48.106;12.008;2022-09-03T09:35:26;20.20;77.30
58519;DHT22;44310;48.106;12.008;2022-09-03T09:37:56;20.20;77.40
58519;DHT22;44310;48.106;12.008;2022-09-03T09:40:31;20.20;77.20
58519;DHT22;44310;48.106;12.008;2022-09-03T09:43:08;20.20;77.70
58519;DHT22;44310;48.106;12.008;2022-09-03T09:45:39;20.20;78.30
58519;DHT22;44310;48.106;12.008;2022-09-03T09:50:44;20.20;77.30
58519;DHT22;44310;48.106;12.008;2022-09-03T09:53:12;20.20;77.50
58519;DHT22;44310;48.106;12.008;2022-09-03T09:55:50;20.20;77.70
58519;DHT22;44310;48.106;12.008;2022-09-03T09:58:20;20.20;78.00
58519;DHT22;44310;48.106;12.008;2022-09-03T10:01:03;20.20;78.10
58519;DHT22;44310;48.106;12.008;2022-09-03T10:03:32;20.20;78.00
58519;DHT22;44310;48.106;12.008;2022-09-03T10:06:05;20.20;78.30
58519;DHT22;44310;48.106;12.008;2022-09-03T10:09:10;20.20;78.10
58519;DHT22;44310;48.106;12.008;2022-09-03T10:11:43;20.20;78.30
58519;DHT22;44310;48.106;12.008;2022-09-03T10:14:28;20.20;78.30
58519;DHT22;44310;48.106;12.008;2022-09-03T10:17:04;20.20;78.10
58519;DHT22;44310;48.106;12.008;2022-09-03T10:19:43;20.20;77.80
58519;DHT22;44310;48.106;12.008;2022-09-03T10:22:39;20.20;78.20
58519;DHT22;44310;48.106;12.008;2022-09-03T10:25:26;20.20;77.90
58519;DHT22;44310;48.106;12.008;2022-09-03T10:27:56;20.30;78.00
58519;DHT22;44310;48.106;12.008;2022-09-03T10:30:26;20.30;77.80
58519;DHT22;44310;48.106;12.008;2022-09-03T10:33:12;20.30;78.90
58519;DHT22;44310;48.106;12.008;2022-09-03T10:35:56;20.30;79.70
58519;DHT22;44310;48.106;12.008;2022-09-03T10:38:31;20.20;79.10
58519;DHT22;44310;48.106;12.008;2022-09-03T10:41:14;20.20;79.00
58519;DHT22;44310;48.106;12.008;2022-09-03T10:44:21;20.20;78.40
58519;DHT22;44310;48.106;12.008;2022-09-03T10:47:20;20.20;78.10
58519;DHT22;44310;48.106;12.008;2022-09-03T10:50:13;20.30;78.50
58519;DHT22;44310;48.106;12.008;2022-09-03T10:56:00;20.30;78.30
58519;DHT22;44310;48.106;12.008;2022-09-03T11:04:16;20.30;78.20
58519;DHT22;44310;48.106;12.008;2022-09-03T11:06:53;20.30;78.00
58519;DHT22;44310;48.106;12.008;2022-09-03T11:10:05;20.30;78.80
58519;DHT22;44310;48.106;12.008;2022-09-03T11:12:28;20.30;78.40
58519;DHT22;44310;48.106;12.008;2022-09-03T11:20:39;20.50;78.10
58519;DHT22;44310;48.106;12.008;2022-09-03T11:23:09;20.50;78.30
58519;DHT22;44310;48.106;12.008;2022-09-03T11:25:57;20.60;78.50
58519;DHT22;44310;48.106;12.008;2022-09-03T11:33:53;20.60;77.00
58519;DHT22;44310;48.106;12.008;2022-09-03T11:36:28;20.70;77.40
58519;DHT22;44310;48.106;12.008;2022-09-03T11:38:56;20.70;76.80
58519;DHT22;44310;48.106;12.008;2022-09-03T11:41:26;20.70;77.20
58519;DHT22;44310;48.106;12.008;2022-09-03T11:43:53;20.70;77.40
58519;DHT22;44310;48.106;12.008;2022-09-03T11:48:51;20.60;77.40
58519;DHT22;44310;48.106;12.008;2022-09-03T11:54:06;20.50;77.50
58519;DHT22;44310;48.106;12.008;2022-09-03T11:56:50;20.50;77.00
58519;DHT22;44310;48.106;12.008;2022-09-03T11:59:22;20.50;76.70
58519;DHT22;44310;48.106;12.008;2022-09-03T12:01:52;20.60;77.00
58519;DHT22;44310;48.106;12.008;2022-09-03T12:04:30;20.70;77.10
58519;DHT22;44310;48.106;12.008;2022-09-03T12:13:04;21.00;78.30
58519;DHT22;44310;48.106;12.008;2022-09-03T12:18:28;21.00;76.90
58519;DHT22;44310;48.106;12.008;2022-09-03T12:26:12;20.90;77.10
58519;DHT22;44310;48.106;12.008;2022-09-03T12:28:43;20.90;77.30
58519;DHT22;44310;48.106;12.008;2022-09-03T12:31:29;20.90;77.40
58519;DHT22;44310;48.106;12.008;2022-09-03T12:34:00;20.90;78.20
58519;DHT22;44310;48.106;12.008;2022-09-03T12:36:42;20.90;77.50
58519;DHT22;44310;48.106;12.008;2022-09-03T12:44:31;20.90;77.60
58519;DHT22;44310;48.106;12.008;2022-09-03T12:47:09;20.90;77.60
58519;DHT22;44310;48.106;12.008;2022-09-03T12:50:25;20.80;77.70
58519;DHT22;44310;48.106;12.008;2022-09-03T12:52:54;20.80;77.70
58519;DHT22;44310;48.106;12.008;2022-09-03T12:58:15;20.90;77.60
58519;DHT22;44310;48.106;12.008;2022-09-03T13:00:52;20.80;77.50
58519;DHT22;44310;48.106;12.008;2022-09-03T13:03:41;20.90;77.30
58519;DHT22;44310;48.106;12.008;2022-09-03T13:06:14;20.90;76.90
58519;DHT22;44310;48.106;12.008;2022-09-03T13:08:49;20.90;76.90
58519;DHT22;44310;48.106;12.008;2022-09-03T13:11:20;20.90;76.70
58519;DHT22;44310;48.106;12.008;2022-09-03T13:14:00;20.90;76.80
58519;DHT22;44310;48.106;12.008;2022-09-03T13:30:07;21.30;78.20
58519;DHT22;44310;48.106;12.008;2022-09-03T13:32:43;21.40;78.50
58519;DHT22;44310;48.106;12.008;2022-09-03T13:40:49;21.50;81.90
58519;DHT22;44310;48.106;12.008;2022-09-03T13:43:43;21.60;83.00
58519;DHT22;44310;48.106;12.008;2022-09-03T13:46:27;21.50;83.20
58519;DHT22;44310;48.106;12.008;2022-09-03T13:49:02;21.50;83.40
58519;DHT22;44310;48.106;12.008;2022-09-03T13:51:55;21.50;84.00
58519;DHT22;44310;48.106;12.008;2022-09-03T13:54:36;21.50;84.50
58519;DHT22;44310;48.106;12.008;2022-09-03T13:57:23;21.50;84.50
58519;DHT22;44310;48.106;12.008;2022-09-03T14:05:46;21.50;85.60
58519;DHT22;44310;48.106;12.008;2022-09-03T14:08:31;21.50;85.50
58519;DHT22;44310;48.106;12.008;2022-09-03T14:11:36;21.50;86.00
58519;DHT22;44310;48.106;12.008;2022-09-03T14:19:25;21.50;86.40
58519;DHT22;44310;48.106;12.008;2022-09-03T14:22:08;21.40;86.50
58519;DHT22;44310;48.106;12.008;2022-09-03T14:25:00;21.40;86.80
58519;DHT22;44310;48.106;12.008;2022-09-03T14:27:30;21.40;86.70
58519;DHT22;44310;48.106;12.008;2022-09-03T14:33:18;21.40;86.80
58519;DHT22;44310;48.106;12.008;2022-09-03T15:00:52;21.40;87.00
58519;DHT22;44310;48.106;12.008;2022-09-03T15:09:26;21.40;87.20
58519;DHT22;44310;48.106;12.008;2022-09-03T15:14:38;21.40;87.70
58519;DHT22;44310;48.106;12.008;2022-09-03T15:17:32;21.40;87.80
58519;DHT22;44310;48.106;12.008;2022-09-03T15:20:20;21.40;87.80
58519;DHT22;44310;48.106;12.008;2022-09-03T15:25:43;21.30;87.50
58519;DHT22;44310;48.106;12.008;2022-09-03T15:28:49;21.30;87.50
58519;DHT22;44310;48.106;12.008;2022-09-03T15:34:54;21.20;84.60
58519;DHT22;44310;48.106;12.008;2022-09-03T15:40:27;21.10;86.90
58519;DHT22;44310;48.106;12.008;2022-09-03T15:53:43;21.20;87.10
58519;DHT22;44310;48.106;12.008;2022-09-03T16:07:08;21.20;87.10
58519;DHT22;44310;48.106;12.008;2022-09-03T16:10:10;21.20;87.10
58519;DHT22;44310;48.106;12.008;2022-09-03T16:16:12;21.20;86.70
58519;DHT22;44310;48.106;12.008;2022-09-03T16:18:42;21.20;86.60
58519;DHT22;44310;48.106;12.008;2022-09-03T16:27:08;21.10;86.70
58519;DHT22;44310;48.106;12.008;2022-09-03T16:29:40;21.20;86.70
58519;DHT22;44310;48.106;12.008;2022-09-03T16:32:30;21.20;86.70
58519;DHT22;44310;48.106;12.008;2022-09-03T16:35:23;21.20;86.70
58519;DHT22;44310;48.106;12.008;2022-09-03T16:51:41;21.20;85.90
58519;DHT22;44310;48.106;12.008;2022-09-03T16:57:17;21.10;85.50
58519;DHT22;44310;48.106;12.008;2022-09-03T17:00:10;21.10;85.50
58519;DHT22;44310;48.106;12.008;2022-09-03T17:03:03;21.10;85.30
58519;DHT22;44310;48.106;12.008;2022-09-03T17:06:12;21.10;85.20
58519;DHT22;44310;48.106;12.008;2022-09-03T17:17:18;21.10;85.70
58519;DHT22;44310;48.106;12.008;2022-09-03T17:19:51;21.20;86.10
58519;DHT22;44310;48.106;12.008;2022-09-03T17:22:32;21.20;86.40
58519;DHT22;44310;48.106;12.008;2022-09-03T17:25:30;21.20;86.60
58519;DHT22;44310;48.106;12.008;2022-09-03T17:28:14;21.20;86.70
58519;DHT22;44310;48.106;12.008;2022-09-03T17:31:01;21.20;86.90
58519;DHT22;44310;48.106;12.008;2022-09-03T17:34:03;21.20;87.20
58519;DHT22;44310;48.106;12.008;2022-09-03T17:36:36;21.20;87.10
58519;DHT22;44310;48.106;12.008;2022-09-03T17:41:57;21.20;86.90
58519;DHT22;44310;48.106;12.008;2022-09-03T17:47:47;21.20;86.90
58519;DHT22;44310;48.106;12.008;2022-09-03T17:50:23;21.20;86.90
58519;DHT22;44310;48.106;12.008;2022-09-03T17:53:09;21.20;86.90
58519;DHT22;44310;48.106;12.008;2022-09-03T17:55:42;21.10;86.90
58519;DHT22;44310;48.106;12.008;2022-09-03T17:58:30;21.10;86.50
58519;DHT22;44310;48.106;12.008;2022-09-03T18:01:11;21.20;86.20
58519;DHT22;44310;48.106;12.008;2022-09-03T18:09:11;20.20;83.40
58519;DHT22;44310;48.106;12.008;2022-09-03T18:14:46;20.30;86.20
58519;DHT22;44310;48.106;12.008;2022-09-03T18:17:30;20.50;86.00
58519;DHT22;44310;48.106;12.008;2022-09-03T18:20:09;20.60;86.00
58519;DHT22;44310;48.106;12.008;2022-09-03T18:23:04;20.70;85.70
58519;DHT22;44310;48.106;12.008;2022-09-03T18:25:58;20.80;85.70
58519;DHT22;44310;48.106;12.008;2022-09-03T18:28:57;20.90;85.70
58519;DHT22;44310;48.106;12.008;2022-09-03T18:31:44;20.90;85.50
58519;DHT22;44310;48.106;12.008;2022-09-03T18:34:33;20.90;85.30
58519;DHT22;44310;48.106;12.008;2022-09-03T18:37:21;21.00;85.30
58519;DHT22;44310;48.106;12.008;2022-09-03T18:40:11;21.00;85.30
58519;DHT22;44310;48.106;12.008;2022-09-03T18:43:13;21.00;85.10
58519;DHT22;44310;48.106;12.008;2022-09-03T18:46:13;21.00;85.10
58519;DHT22;44310;48.106;12.008;2022-09-03T18:49:39;21.00;85.10
58519;DHT22;44310;48.106;12.008;2022-09-03T18:52:53;21.00;85.00
58519;DHT22;44310;48.106;12.008;2022-09-03T19:01:39;20.90;84.60
58519;DHT22;44310;48.106;12.008;2022-09-03T19:10:53;20.90;84.70
58519;DHT22;44310;48.106;12.008;2022-09-03T19:13:40;21.00;84.50
58519;DHT22;44310;48.106;12.008;2022-09-03T19:22:36;21.00;84.30
58519;DHT22;44310;48.106;12.008;2022-09-03T19:25:24;21.00;84.20
58519;DHT22;44310;48.106;12.008;2022-09-03T19:31:27;21.00;83.90
58519;DHT22;44310;48.106;12.008;2022-09-03T19:34:39;21.00;83.70
58519;DHT22;44310;48.106;12.008;2022-09-03T19:47:00;20.90;83.10
58519;DHT22;44310;48.106;12.008;2022-09-03T19:50:01;21.00;83.20
58519;DHT22;44310;48.106;12.008;2022-09-03T19:52:50;21.00;83.10
58519;DHT22;44310;48.106;12.008;2022-09-03T19:55:51;21.00;83.10
58519;DHT22;44310;48.106;12.008;2022-09-03T19:58:47;21.00;82.90
58519;DHT22;44310;48.106;12.008;2022-09-03T20:01:36;21.00;83.00
58519;DHT22;44310;48.106;12.008;2022-09-03T20:04:47;21.00;83.10
58519;DHT22;44310;48.106;12.008;2022-09-03T20:07:37;21.00;83.20
58519;DHT22;44310;48.106;12.008;2022-09-03T20:10:24;21.00;84.10
58519;DHT22;44310;48.106;12.008;2022-09-03T20:20:55;21.00;83.00
58519;DHT22;44310;48.106;12.008;2022-09-03T20:24:35;20.90;82.60
58519;DHT22;44310;48.106;12.008;2022-09-03T20:32:10;20.90;82.20
58519;DHT22;44310;48.106;12.008;2022-09-03T20:34:50;21.00;82.40
58519;DHT22;44310;48.106;12.008;2022-09-03T20:37:37;21.00;82.10
58519;DHT22;44310;48.106;12.008;2022-09-03T20:40:39;20.90;81.70
58519;DHT22;44310;48.106;12.008;2022-09-03T20:43:21;20.90;81.50
58519;DHT22;44310;48.106;12.008;2022-09-03T20:46:47;20.90;81.20
58519;DHT22;44310;48.106;12.008;2022-09-03T20:51:48;20.90;80.80
58519;DHT22;44310;48.106;12.008;2022-09-03T20:54:24;20.90;80.60
58519;DHT22;44310;48.106;12.008;2022-09-03T21:00:10;21.00;80.40
58519;DHT22;44310;48.106;12.008;2022-09-03T21:05:37;20.90;80.20
58519;DHT22;44310;48.106;12.008;2022-09-03T21:11:05;20.90;80.00
58519;DHT22;44310;48.106;12.008;2022-09-03T21:14:04;20.90;79.80
58519;DHT22;44310;48.106;12.008;2022-09-03T21:19:21;21.00;79.70
58519;DHT22;44310;48.106;12.008;2022-09-03T21:24:57;20.90;79.50
58519;DHT22;44310;48.106;12.008;2022-09-03T21:27:37;20.90;79.40
58519;DHT22;44310;48.106;12.008;2022-09-03T21:30:13;20.90;79.20
58519;DHT22;44310;48.106;12.008;2022-09-03T21:35:37;20.90;79.70
58519;DHT22;44310;48.106;12.008;2022-09-03T21:38:10;21.00;79.90
58519;DHT22;44310;48.106;12.008;2022-09-03T21:41:01;21.00;80.00
58519;DHT22;44310;48.106;12.008;2022-09-03T21:43:37;21.00;80.30
58519;DHT22;44310;48.106;12.008;2022-09-03T21:48:55;21.00;80.30
58519;DHT22;44310;48.106;12.008;2022-09-03T21:53:58;21.00;80.20
58519;DHT22;44310;48.106;12.008;2022-09-03T21:56:45;21.00;80.10
58519;DHT22;44310;48.106;12.008;2022-09-03T22:04:49;20.90;79.70
58519;DHT22;44310;48.106;12.008;2022-09-03T22:15:36;20.80;79.00